createdAt,value
2018-12-19T00:00:30.579Z,11.70
2018-12-19T00:02:35.631Z,7.73
2018-12-19T00:04:40.830Z,3.53
2018-12-19T00:06:47.645Z,11.17
2018-12-19T00:08:54.970Z,4.33
2018-12-19T00:11:07.547Z,3.33
2018-12-19T00:15:28.717Z,3.63
2018-12-19T00:17:36.337Z,3.33
2018-12-19T00:19:44.643Z,21.03
2018-12-19T00:21:57.124Z,29.50
2018-12-19T00:24:10.639Z,5.10
2018-12-19T00:26:29.972Z,3.77
2018-12-19T00:28:36.633Z,7.70
2018-12-19T00:30:42.057Z,3.00
2018-12-19T00:32:46.986Z,3.17
2018-12-19T00:34:58.375Z,2.77
2018-12-19T00:37:11.682Z,2.80
2018-12-19T00:39:17.132Z,2.03
2018-12-19T00:41:21.510Z,2.47
2018-12-19T00:43:28.630Z,19.77
2018-12-19T00:45:34.386Z,5.70
2018-12-19T00:51:02.664Z,2.50
2018-12-19T00:53:10.541Z,3.13
2018-12-19T00:55:17.271Z,2.30
2018-12-19T00:57:21.561Z,68.83
2018-12-19T00:59:28.136Z,3.90
2018-12-19T01:01:33.726Z,2.50
2018-12-19T01:03:40.284Z,3.07
2018-12-19T01:05:45.832Z,17.60
2018-12-19T01:07:50.404Z,3.03
2018-12-19T01:09:54.978Z,2.17
2018-12-19T01:12:00.135Z,2.90
2018-12-19T01:14:10.486Z,2.37
2018-12-19T01:16:15.331Z,2.10
2018-12-19T01:18:19.783Z,2.17
2018-12-19T01:20:25.782Z,1.67
2018-12-19T01:22:29.401Z,2.20
2018-12-19T01:24:33.174Z,2.20
2018-12-19T01:26:37.349Z,47.70
2018-12-19T01:28:41.214Z,3.23
2018-12-19T01:30:44.836Z,251.63
2018-12-19T01:32:49.090Z,193.90
2018-12-19T01:34:52.895Z,9.47
2018-12-19T01:36:56.843Z,3.50
2018-12-19T01:39:01.341Z,98.23
2018-12-19T01:41:05.296Z,443.27
2018-12-19T01:43:13.494Z,215.03
2018-12-19T01:45:19.935Z,238.93
2018-12-19T01:47:26.803Z,36.90
2018-12-19T01:49:30.650Z,13.17
2018-12-19T01:51:34.953Z,49.17
2018-12-19T01:53:38.848Z,4.20
2018-12-19T01:55:43.100Z,3.10
2018-12-19T01:57:47.278Z,556.50
2018-12-19T01:59:50.967Z,149.93
2018-12-19T02:01:58.584Z,20.17
2018-12-19T02:04:03.111Z,8.50
2018-12-19T02:06:07.513Z,17.13
2018-12-19T02:08:13.108Z,3.70
2018-12-19T02:10:21.020Z,63.43
2018-12-19T02:12:26.279Z,4.73
2018-12-19T02:14:30.178Z,2.80
2018-12-19T02:16:35.540Z,18.70
2018-12-19T02:18:39.790Z,3.27
2018-12-19T02:20:44.538Z,2.10
2018-12-19T02:22:52.620Z,2.07
2018-12-19T02:25:01.950Z,31.43
2018-12-19T02:27:06.087Z,2.10
2018-12-19T02:29:11.504Z,1.50
2018-12-19T02:31:15.118Z,1.60
2018-12-19T02:33:19.398Z,2.00
2018-12-19T02:35:23.344Z,1.63
2018-12-19T02:37:27.402Z,1.87
2018-12-19T02:39:36.147Z,37.60
2018-12-19T02:41:37.007Z,1.80
2018-12-19T02:43:40.640Z,1.70
2018-12-19T02:45:44.356Z,1.63
2018-12-19T02:47:49.218Z,1.60
2018-12-19T02:49:56.966Z,1.60
2018-12-19T02:52:02.406Z,1.50
2018-12-19T02:54:10.816Z,1.60
2018-12-19T02:56:14.664Z,1.30
2018-12-19T02:58:19.243Z,1.67
2018-12-19T03:00:23.435Z,122.00
2018-12-19T03:02:27.666Z,31.00
2018-12-19T03:04:31.341Z,4.03
2018-12-19T03:06:35.513Z,1.50
2018-12-19T03:08:39.351Z,1.77
2018-12-19T03:10:43.159Z,1.43
2018-12-19T03:12:47.079Z,400.73
2018-12-19T03:14:50.897Z,2.00
2018-12-19T03:16:57.026Z,62.53
2018-12-19T03:19:04.069Z,1.70
2018-12-19T03:21:09.577Z,1.47
2018-12-19T03:23:14.360Z,1.43
2018-12-19T03:25:17.913Z,1.13
2018-12-19T03:27:21.944Z,1.47
2018-12-19T03:29:25.858Z,1.30
2018-12-19T03:31:29.992Z,1.23
2018-12-19T03:33:33.816Z,1.60
2018-12-19T03:35:37.982Z,1.30
2018-12-19T03:37:41.957Z,1.40
2018-12-19T03:39:50.197Z,1.20
2018-12-19T03:41:52.135Z,1.70
2018-12-19T03:43:56.064Z,86.20
2018-12-19T03:46:01.835Z,62.23
2018-12-19T03:48:11.552Z,110.90
2018-12-19T03:50:19.673Z,3.20
2018-12-19T03:52:23.254Z,2.03
2018-12-19T03:54:27.123Z,1.40
2018-12-19T03:56:30.986Z,3.30
2018-12-19T03:58:34.551Z,1.40
2018-12-19T04:00:44.566Z,1.87
2018-12-19T04:02:48.227Z,1.70
2018-12-19T04:04:52.277Z,1.20
2018-12-19T04:06:56.821Z,1.33
2018-12-19T04:09:01.056Z,1.20
2018-12-19T04:11:08.086Z,1.40
2018-12-19T04:13:14.093Z,1.60
2018-12-19T04:15:19.694Z,1.57
2018-12-19T04:17:24.588Z,1.40
2018-12-19T04:19:28.253Z,1.10
2018-12-19T04:21:32.082Z,2.77
2018-12-19T04:23:36.159Z,1.90
2018-12-19T04:25:40.286Z,15.20
2018-12-19T04:27:44.840Z,4.80
2018-12-19T04:29:49.011Z,1.90
2018-12-19T04:31:52.998Z,11.60
2018-12-19T04:33:56.931Z,2.50
2018-12-19T04:36:01.300Z,1.40
2018-12-19T04:38:05.141Z,62.60
2018-12-19T04:40:09.838Z,15.90
2018-12-19T04:42:26.283Z,2.33
2018-12-19T04:44:32.152Z,1.50
2018-12-19T04:46:36.408Z,1.60
2018-12-19T04:48:40.243Z,651.40
2018-12-19T04:50:43.959Z,219.50
2018-12-19T04:52:47.942Z,5.20
2018-12-19T04:54:51.750Z,1.90
2018-12-19T04:56:55.822Z,1.60
2018-12-19T04:58:59.759Z,1.77
2018-12-19T05:01:03.518Z,76.33
2018-12-19T05:03:08.805Z,484.53
2018-12-19T05:05:12.540Z,13.90
2018-12-19T05:09:31.058Z,1.80
2018-12-19T05:11:37.052Z,1.33
2018-12-19T05:13:41.606Z,117.63
2018-12-19T05:15:49.821Z,154.97
2018-12-19T05:17:58.019Z,104.00
2018-12-19T05:20:08.747Z,188.83
2018-12-19T05:22:12.728Z,587.83
2018-12-19T05:24:16.737Z,232.03
2018-12-19T05:26:20.233Z,17.53
2018-12-19T05:28:24.591Z,5.70
2018-12-19T05:30:29.095Z,2.80
2018-12-19T05:32:33.299Z,2.50
2018-12-19T05:34:38.592Z,2.70
2018-12-19T05:36:42.509Z,64.40
2018-12-19T05:38:46.373Z,93.20
2018-12-19T05:40:52.946Z,385.60
2018-12-19T05:43:01.417Z,31.87
2018-12-19T05:45:09.782Z,58.90
2018-12-19T05:47:16.834Z,141.20
2018-12-19T05:49:20.540Z,9.60
2018-12-19T05:51:24.644Z,4.00
2018-12-19T05:53:29.672Z,60.80
2018-12-19T05:55:33.427Z,100.33
2018-12-19T05:57:37.458Z,8.33
2018-12-19T05:59:42.707Z,156.77
2018-12-19T06:01:46.591Z,7.43
2018-12-19T06:03:50.306Z,3.00
2018-12-19T06:05:54.088Z,2.43
2018-12-19T06:07:59.022Z,2.37
2018-12-19T06:10:08.582Z,2.20
2018-12-19T06:12:20.638Z,2.13
2018-12-19T06:14:24.608Z,1.70
2018-12-19T06:16:28.237Z,2.00
2018-12-19T06:18:34.565Z,1.63
2018-12-19T06:20:38.381Z,1.80
2018-12-19T06:22:42.354Z,1.60
2018-12-19T06:24:49.364Z,19.80
2018-12-19T06:26:53.092Z,12.43
2018-12-19T06:28:57.451Z,2.70
2018-12-19T06:31:01.801Z,2.10
2018-12-19T06:33:10.134Z,2.10
2018-12-19T06:35:16.644Z,2.00
2018-12-19T06:37:24.243Z,5.83
2018-12-19T06:39:27.976Z,2.50
2018-12-19T06:41:31.849Z,6.80
2018-12-19T06:43:35.847Z,2.67
2018-12-19T06:45:39.974Z,2.50
2018-12-19T06:47:43.467Z,2.00
2018-12-19T06:49:47.286Z,1.60
2018-12-19T06:51:51.297Z,2.00
2018-12-19T06:53:54.853Z,9.57
2018-12-19T06:55:58.450Z,243.50
2018-12-19T06:58:02.449Z,8.07
2018-12-19T07:00:08.773Z,4.00
2018-12-19T07:02:19.707Z,530.90
2018-12-19T07:04:24.563Z,590.90
2018-12-19T07:06:29.486Z,28.50
2018-12-19T07:08:33.423Z,19.87
2018-12-19T07:10:39.302Z,5.10
2018-12-19T07:12:44.233Z,3.40
2018-12-19T07:14:48.586Z,2.93
2018-12-19T07:16:52.659Z,2.80
2018-12-19T07:18:56.382Z,2.70
2018-12-19T07:21:01.048Z,2.60
2018-12-19T07:23:05.134Z,2.40
2018-12-19T07:25:09.455Z,2.43
2018-12-19T07:27:18.462Z,2.30
2018-12-19T07:29:26.349Z,52.37
2018-12-19T07:31:31.940Z,70.93
2018-12-19T07:33:36.116Z,7.13
2018-12-19T07:35:39.841Z,69.27
2018-12-19T07:37:43.543Z,12.23
2018-12-19T07:39:47.779Z,2.93
2018-12-19T07:41:51.384Z,2.20
2018-12-19T07:43:55.402Z,1.90
2018-12-19T07:45:59.281Z,2.00
2018-12-19T07:48:02.918Z,2.30
2018-12-19T07:50:07.521Z,1.60
2018-12-19T07:52:11.366Z,1.90
2018-12-19T07:54:15.504Z,1.80
2018-12-19T07:56:22.684Z,1.83
2018-12-19T07:58:27.495Z,1.60
2018-12-19T08:00:32.036Z,1.97
2018-12-19T08:02:37.972Z,1.80
2018-12-19T08:04:42.734Z,1.90
2018-12-19T08:06:46.352Z,1.67
2018-12-19T08:08:53.171Z,1.50
2018-12-19T08:10:59.518Z,1.90
2018-12-19T08:13:06.220Z,1.70
2018-12-19T08:15:10.535Z,1.80
2018-12-19T08:17:16.043Z,1.83
2018-12-19T08:19:20.078Z,1.63
2018-12-19T08:21:23.610Z,1.70
2018-12-19T08:23:28.501Z,2.07
2018-12-19T08:25:31.972Z,1.93
2018-12-19T08:27:35.516Z,1.87
2018-12-19T08:29:39.308Z,1.63
2018-12-19T08:31:43.215Z,2.00
2018-12-19T08:33:46.998Z,2.10
2018-12-19T08:35:51.246Z,1.87
2018-12-19T08:37:58.349Z,1.50
2018-12-19T08:40:06.003Z,2.07
2018-12-19T08:42:12.428Z,1.90
2018-12-19T08:44:16.903Z,1.67
2018-12-19T08:46:20.794Z,1.87
2018-12-19T08:48:25.314Z,1.60
2018-12-19T08:50:29.146Z,1.50
2018-12-19T08:52:33.933Z,1.73
2018-12-19T08:54:38.585Z,1.63
2018-12-19T08:56:42.067Z,1.77
2018-12-19T08:58:45.568Z,1.70
2018-12-19T09:00:53.557Z,2.13
2018-12-19T09:02:58.933Z,2.03
2018-12-19T09:05:06.612Z,2.20
2018-12-19T09:07:11.456Z,1.70
2018-12-19T09:09:20.819Z,2.17
2018-12-19T09:11:24.529Z,2.10
2018-12-19T09:13:28.368Z,2.03
2018-12-19T09:15:37.090Z,2.30
2018-12-19T09:17:40.754Z,1.60
2018-12-19T09:19:45.223Z,2.00
2018-12-19T09:21:48.744Z,2.13
2018-12-19T09:23:52.211Z,2.30
2018-12-19T09:25:57.384Z,2.03
2018-12-19T09:28:03.949Z,2.13
2018-12-19T09:30:12.546Z,1.77
2018-12-19T09:32:19.413Z,2.10
2018-12-19T09:34:24.133Z,1.90
2018-12-19T09:36:27.775Z,2.20
2018-12-19T09:38:31.844Z,2.03
2018-12-19T09:40:35.640Z,1.80
2018-12-19T09:42:39.146Z,2.10
2018-12-19T09:44:43.417Z,2.20
2018-12-19T09:46:49.542Z,2.00
2018-12-19T09:48:53.799Z,191.13
2018-12-19T09:51:14.223Z,44.20
2018-12-19T09:53:20.041Z,2.57
2018-12-19T09:55:26.242Z,2.47
2018-12-19T09:57:30.232Z,2.40
2018-12-19T09:59:38.158Z,2.10
2018-12-19T10:01:41.940Z,2.30
2018-12-19T10:03:46.059Z,2.50
2018-12-19T10:05:49.748Z,5.03
2018-12-19T10:07:53.461Z,164.73
2018-12-19T10:09:58.683Z,631.67
2018-12-19T10:12:02.816Z,540.70
2018-12-19T10:14:07.177Z,567.00
2018-12-19T10:16:13.866Z,122.20
2018-12-19T10:18:22.573Z,950.00
2018-12-19T10:20:27.598Z,999.90
2018-12-19T10:22:33.606Z,840.60
2018-12-19T10:24:52.218Z,332.30
2018-12-19T10:26:57.624Z,113.27
2018-12-19T10:29:02.798Z,40.27
2018-12-19T10:31:06.616Z,17.43
2018-12-19T10:33:10.765Z,8.77
2018-12-19T10:35:18.123Z,6.17
2018-12-19T10:37:26.651Z,4.90
2018-12-19T10:39:32.652Z,4.20
2018-12-19T10:41:37.229Z,3.50
2018-12-19T10:43:44.152Z,3.83
2018-12-19T10:45:49.322Z,3.30
2018-12-19T10:47:54.871Z,3.10
2018-12-19T10:49:58.867Z,3.03
2018-12-19T10:52:03.515Z,3.23
2018-12-19T10:54:07.723Z,3.23
2018-12-19T10:56:11.399Z,3.13
2018-12-19T10:58:15.286Z,2.67
2018-12-19T11:00:27.019Z,2.80
2018-12-19T11:02:31.699Z,3.10
2018-12-19T11:04:38.471Z,2.70
2018-12-19T11:06:43.060Z,2.80
2018-12-19T11:08:48.808Z,2.83
2018-12-19T11:11:05.632Z,2.50
2018-12-19T11:13:11.101Z,2.63
2018-12-19T11:15:17.660Z,2.47
2018-12-19T11:17:24.349Z,2.97
2018-12-19T11:19:30.957Z,2.60
2018-12-19T11:21:38.839Z,2.87
2018-12-19T11:23:44.833Z,2.90
2018-12-19T11:25:49.180Z,3.40
2018-12-19T11:27:53.888Z,2.47
2018-12-19T11:30:04.633Z,2.80
2018-12-19T11:32:12.458Z,2.70
2018-12-19T11:34:17.894Z,2.93
2018-12-19T11:36:23.654Z,3.23
2018-12-19T11:38:30.591Z,2.77
2018-12-19T11:40:34.656Z,2.73
2018-12-19T11:42:38.747Z,2.87
2018-12-19T11:44:48.041Z,2.93
2018-12-19T11:46:52.982Z,3.00
2018-12-19T11:48:59.994Z,2.83
2018-12-19T11:51:18.133Z,2.70
2018-12-19T11:53:21.781Z,3.13
2018-12-19T11:55:27.199Z,2.77
2018-12-19T11:57:32.138Z,3.10
2018-12-19T12:10:47.745Z,2.60
2018-12-19T12:16:56.635Z,2.70
2018-12-19T12:19:00.883Z,2.37
2018-12-19T12:21:09.314Z,2.33
2018-12-19T12:23:22.563Z,2.40
2018-12-19T12:25:30.633Z,2.70
2018-12-19T12:27:37.779Z,2.70
2018-12-19T12:29:43.012Z,2.67
2018-12-19T12:31:48.976Z,2.47
2018-12-19T12:33:56.278Z,2.37
2018-12-19T12:36:01.207Z,2.57
2018-12-19T12:38:06.024Z,2.40
2018-12-19T12:40:12.369Z,2.80
2018-12-19T12:42:21.043Z,2.53
2018-12-19T12:44:27.300Z,2.27
2018-12-19T12:46:32.117Z,2.53
2018-12-19T12:48:41.282Z,2.20
2018-12-19T12:50:46.661Z,2.40
2018-12-19T12:52:54.268Z,2.40
2018-12-19T12:55:02.194Z,2.63
2018-12-19T12:57:09.709Z,2.93
2018-12-19T12:59:19.713Z,2.00
2018-12-19T13:01:32.470Z,2.90
2018-12-19T13:03:41.584Z,2.33
2018-12-19T13:05:49.412Z,2.70
2018-12-19T13:07:54.229Z,2.67
2018-12-19T13:10:03.941Z,2.40
2018-12-19T13:12:19.281Z,2.47
2018-12-19T13:14:36.583Z,2.77
2018-12-19T13:16:45.475Z,2.37
2018-12-19T13:18:51.513Z,2.17
2018-12-19T13:23:24.109Z,2.40
2018-12-19T13:25:34.162Z,2.70
2018-12-19T13:27:45.051Z,2.10
2018-12-19T13:29:50.638Z,2.03
2018-12-19T13:32:05.465Z,2.07
2018-12-19T13:34:15.250Z,2.50
2018-12-19T13:36:29.339Z,2.10
2018-12-19T13:38:37.988Z,2.60
2018-12-19T13:40:46.181Z,2.50
2018-12-19T13:42:50.208Z,2.37
2018-12-19T13:44:56.791Z,2.13
2018-12-19T13:47:06.898Z,2.33
2018-12-19T13:49:12.736Z,2.50
2018-12-19T13:51:25.322Z,2.27
2018-12-19T13:53:32.133Z,2.30
2018-12-19T13:55:37.717Z,2.93
2018-12-19T13:57:44.496Z,2.20
2018-12-19T13:59:59.970Z,2.00
2018-12-19T14:02:13.129Z,2.43
2018-12-19T14:04:18.810Z,2.63
2018-12-19T14:06:23.022Z,1.90
2018-12-19T14:08:27.482Z,2.07
2018-12-19T14:10:36.448Z,2.13
2018-12-19T14:12:49.914Z,2.30
2018-12-19T14:15:01.825Z,2.60
2018-12-19T14:17:13.056Z,2.63
2018-12-19T14:19:20.083Z,2.47
2018-12-19T14:21:26.653Z,2.00
2018-12-19T14:23:32.585Z,2.00
2018-12-19T14:25:40.446Z,2.90
2018-12-19T14:34:22.225Z,2.17
2018-12-19T14:36:29.895Z,2.50
2018-12-19T14:38:38.263Z,2.50
2018-12-19T14:40:44.345Z,2.00
2018-12-19T14:42:53.859Z,2.60
2018-12-19T14:45:01.557Z,2.60
2018-12-19T14:47:13.692Z,2.53
2018-12-19T14:49:20.884Z,2.33
2018-12-19T14:51:28.733Z,2.37
2018-12-19T14:53:37.923Z,2.17
2018-12-19T14:55:46.357Z,2.60
2018-12-19T14:57:59.449Z,2.37
2018-12-19T15:00:10.669Z,2.33
2018-12-19T15:02:20.410Z,2.20
2018-12-19T15:04:27.603Z,2.10
2018-12-19T15:06:35.053Z,2.80
2018-12-19T15:08:40.630Z,2.57
2018-12-19T15:10:45.621Z,2.60
2018-12-19T15:12:51.008Z,2.53
2018-12-19T15:14:57.368Z,2.50
2018-12-19T15:17:13.877Z,3.40
2018-12-19T15:19:27.299Z,2.60
2018-12-19T15:21:31.873Z,2.37
2018-12-19T15:23:38.004Z,2.80
2018-12-19T15:25:44.907Z,2.40
2018-12-19T15:27:51.712Z,2.03
2018-12-19T15:29:56.314Z,2.47
2018-12-19T15:32:02.136Z,2.40
2018-12-19T15:34:08.577Z,2.63
2018-12-19T15:36:19.373Z,1.90
2018-12-19T15:38:25.453Z,2.57
2018-12-19T15:40:31.746Z,2.67
2018-12-19T15:42:38.005Z,2.30
2018-12-19T15:44:43.649Z,2.70
2018-12-19T15:46:48.737Z,2.70
2018-12-19T15:48:54.155Z,2.63
2018-12-19T15:51:00.985Z,2.47
2018-12-19T15:53:07.291Z,2.17
2018-12-19T15:55:19.501Z,2.20
2018-12-19T15:57:32.037Z,2.47
2018-12-19T15:59:37.818Z,2.67
2018-12-19T16:01:47.565Z,2.50
2018-12-19T16:03:55.100Z,2.43
2018-12-19T16:06:01.002Z,2.57
2018-12-19T16:08:06.579Z,15.20
2018-12-19T16:10:16.281Z,109.90
2018-12-19T16:12:26.464Z,42.00
2018-12-19T16:14:34.411Z,6.60
2018-12-19T16:16:40.531Z,3.57
2018-12-19T16:18:52.147Z,3.60
2018-12-19T16:20:56.774Z,3.50
2018-12-19T16:23:01.622Z,2.70
2018-12-19T16:25:06.391Z,2.87
2018-12-19T16:27:16.034Z,3.20
2018-12-19T16:29:28.253Z,3.00
2018-12-19T16:31:35.654Z,3.03
2018-12-19T16:33:43.581Z,2.93
2018-12-19T16:35:48.550Z,3.30
2018-12-19T16:37:52.617Z,2.80
2018-12-19T16:40:00.755Z,2.93
2018-12-19T16:42:10.589Z,2.40
2018-12-19T16:44:16.590Z,3.30
2018-12-19T16:46:21.805Z,2.30
2018-12-19T16:48:27.084Z,2.90
2018-12-19T16:50:33.104Z,2.70
2018-12-19T16:52:43.100Z,2.53
2018-12-19T16:54:48.128Z,3.13
2018-12-19T16:56:54.301Z,2.80
2018-12-19T16:59:04.600Z,2.90
2018-12-19T17:01:12.036Z,2.57
2018-12-19T17:03:17.816Z,2.60
2018-12-19T17:05:22.485Z,2.80
2018-12-19T17:07:27.190Z,3.00
2018-12-19T17:09:31.547Z,3.20
2018-12-19T17:11:36.505Z,2.40
2018-12-19T17:13:40.942Z,2.53
2018-12-19T17:15:44.599Z,3.13
2018-12-19T17:17:49.179Z,2.73
2018-12-19T17:19:53.245Z,2.90
2018-12-19T17:21:58.988Z,2.73
2018-12-19T17:24:06.844Z,2.77
2018-12-19T17:26:15.125Z,2.57
2018-12-19T17:28:19.199Z,2.50
2018-12-19T17:30:23.286Z,2.80
2018-12-19T17:32:27.864Z,2.80
2018-12-19T17:34:31.561Z,2.97
2018-12-19T17:36:35.790Z,2.10
2018-12-19T17:38:41.802Z,3.00
2018-12-19T17:40:45.648Z,2.87
2018-12-19T17:42:49.655Z,2.80
2018-12-19T17:44:53.445Z,2.97
2018-12-19T17:46:58.940Z,2.67
2018-12-19T17:49:07.712Z,2.53
2018-12-19T17:51:13.245Z,2.47
2018-12-19T17:53:18.900Z,2.80
2018-12-19T17:55:24.079Z,2.90
2018-12-19T17:57:27.648Z,3.10
2018-12-19T17:59:31.233Z,2.50
2018-12-19T18:01:35.046Z,2.80
2018-12-19T18:03:38.935Z,2.90
2018-12-19T18:05:44.333Z,2.70
2018-12-19T18:07:49.129Z,3.13
2018-12-19T18:09:52.600Z,3.03
2018-12-19T18:11:56.691Z,2.90
2018-12-19T18:14:00.420Z,2.63
2018-12-19T18:16:04.043Z,3.00
2018-12-19T18:18:09.980Z,2.27
2018-12-19T18:20:18.304Z,2.37
2018-12-19T18:22:24.614Z,3.03
2018-12-19T18:24:30.020Z,2.60
2018-12-19T18:26:34.254Z,2.50
2018-12-19T18:28:37.824Z,2.83
2018-12-19T18:30:41.404Z,2.80
2018-12-19T18:32:45.426Z,2.30
2018-12-19T18:34:49.758Z,2.43
2018-12-19T18:36:53.632Z,3.27
2018-12-19T18:38:57.394Z,2.40
2018-12-19T18:41:00.974Z,2.70
2018-12-19T18:43:04.742Z,2.70
2018-12-19T18:45:11.894Z,2.50
2018-12-19T18:47:18.592Z,2.67
2018-12-19T18:49:23.516Z,2.50
2018-12-19T18:51:28.637Z,2.60
2018-12-19T18:53:32.884Z,2.30
2018-12-19T18:55:39.709Z,2.77
2018-12-19T18:57:43.425Z,2.43
2018-12-19T18:59:47.332Z,2.90
2018-12-19T19:01:54.085Z,2.50
2018-12-19T19:03:58.732Z,2.90
2018-12-19T19:06:02.702Z,2.70
2018-12-19T19:08:07.864Z,2.57
2018-12-19T19:10:12.317Z,2.57
2018-12-19T19:12:16.780Z,2.43
2018-12-19T19:14:25.520Z,2.50
2018-12-19T19:16:32.575Z,2.33
2018-12-19T19:18:37.028Z,3.17
2018-12-19T19:20:41.088Z,2.30
2018-12-19T19:22:45.412Z,2.30
2018-12-19T19:24:51.762Z,2.70
2018-12-19T19:26:55.562Z,2.60
2018-12-19T19:29:00.537Z,2.80
2018-12-19T19:31:05.354Z,2.40
2018-12-19T19:33:09.798Z,2.37
2018-12-19T19:35:14.155Z,2.50
2018-12-19T19:37:18.313Z,2.63
2018-12-19T19:39:21.854Z,2.40
2018-12-19T19:41:26.141Z,2.40
2018-12-19T19:43:29.799Z,2.50
2018-12-19T19:45:33.393Z,2.10
2018-12-19T19:47:38.486Z,2.27
2018-12-19T19:49:42.073Z,2.07
2018-12-19T19:51:45.692Z,2.13
2018-12-19T19:53:49.762Z,2.10
2018-12-19T19:55:53.335Z,2.43
2018-12-19T19:58:00.285Z,2.23
2018-12-19T20:00:06.802Z,2.00
2018-12-19T20:02:12.469Z,2.10
2018-12-19T20:04:16.960Z,2.30
2018-12-19T20:06:21.308Z,2.20
2018-12-19T20:08:24.952Z,2.20
2018-12-19T20:10:28.419Z,2.43
2018-12-19T20:12:32.273Z,2.30
2018-12-19T20:14:35.867Z,2.00
2018-12-19T20:16:45.312Z,2.23
2018-12-19T20:18:49.413Z,2.30
2018-12-19T20:20:53.295Z,2.13
2018-12-19T20:22:58.073Z,2.50
2018-12-19T20:25:07.207Z,2.10
2018-12-19T20:27:13.513Z,2.20
2018-12-19T20:29:19.468Z,2.00
2018-12-19T20:31:24.401Z,2.23
2018-12-19T20:33:28.246Z,2.40
2018-12-19T20:35:32.459Z,2.30
2018-12-19T20:37:37.029Z,2.57
2018-12-19T20:39:42.670Z,2.50
2018-12-19T20:41:46.336Z,2.40
2018-12-19T20:43:50.703Z,2.77
2018-12-19T20:45:55.115Z,2.10
2018-12-19T20:48:05.795Z,2.20
2018-12-19T20:50:14.758Z,2.03
2018-12-19T20:52:19.390Z,2.40
2018-12-19T20:54:25.354Z,2.10
2018-12-19T20:56:30.542Z,2.43
2018-12-19T20:58:35.013Z,2.40
2018-12-19T21:00:38.842Z,2.03
2018-12-19T21:02:43.158Z,2.30
2018-12-19T21:04:47.275Z,2.63
2018-12-19T21:06:52.294Z,2.20
2018-12-19T21:08:56.665Z,2.40
2018-12-19T21:11:01.965Z,2.77
2018-12-19T21:13:17.648Z,2.73
2018-12-19T21:15:27.051Z,2.37
2018-12-19T21:17:37.621Z,2.30
2018-12-19T21:19:42.938Z,2.13
2018-12-19T21:21:48.692Z,2.70
2018-12-19T21:23:54.372Z,2.67
2018-12-19T21:26:03.853Z,2.10
2018-12-19T21:28:14.213Z,2.20
2018-12-19T21:30:29.946Z,2.30
2018-12-19T21:32:41.610Z,2.33
2018-12-19T21:34:46.328Z,2.67
2018-12-19T21:36:50.515Z,2.43
2018-12-19T21:38:54.508Z,2.53
2018-12-19T21:40:59.144Z,2.60
2018-12-19T21:43:04.637Z,2.00
2018-12-19T21:45:11.547Z,2.07
2018-12-19T21:47:19.616Z,1.97
2018-12-19T21:49:32.272Z,2.50
2018-12-19T21:51:39.460Z,2.30
2018-12-19T21:53:44.261Z,2.23
2018-12-19T21:55:49.249Z,2.10
2018-12-19T21:57:53.105Z,2.20
2018-12-19T21:59:57.267Z,2.30
2018-12-19T22:02:02.422Z,2.10
2018-12-19T22:04:09.212Z,2.10
2018-12-19T22:06:17.811Z,2.37
2018-12-19T22:08:25.099Z,2.43
2018-12-19T22:10:36.689Z,2.60
2018-12-19T22:12:40.682Z,2.23
2018-12-19T22:14:47.864Z,2.40
2018-12-19T22:16:57.438Z,2.37
2018-12-19T22:19:02.376Z,2.20
2018-12-19T22:21:09.003Z,2.37
2018-12-19T22:23:13.874Z,2.33
2018-12-19T22:25:20.183Z,2.67
2018-12-19T22:27:29.280Z,2.00
2018-12-19T22:29:40.067Z,2.40
2018-12-19T22:31:46.123Z,2.40
2018-12-19T22:33:51.211Z,2.10
2018-12-19T22:36:00.553Z,2.23
2018-12-19T22:38:10.586Z,2.37
2018-12-19T22:40:16.322Z,2.23
2018-12-19T22:42:21.201Z,2.73
2018-12-19T22:44:25.571Z,2.60
2018-12-19T22:46:29.252Z,2.70
2018-12-19T22:48:33.386Z,2.50
2018-12-19T22:50:37.420Z,2.50
2018-12-19T22:52:41.534Z,2.90
2018-12-19T22:54:46.143Z,2.70
2018-12-19T22:56:50.488Z,2.93
2018-12-19T22:58:54.302Z,75.67
2018-12-19T23:01:05.834Z,657.30
2018-12-19T23:03:13.591Z,697.63
2018-12-19T23:05:23.351Z,553.20
2018-12-19T23:07:28.304Z,245.43
2018-12-19T23:09:32.897Z,179.53
2018-12-19T23:11:37.469Z,598.27
2018-12-19T23:13:42.527Z,335.83
2018-12-19T23:15:46.454Z,135.30
2018-12-19T23:17:53.814Z,285.33
2018-12-19T23:19:58.335Z,27.03
2018-12-19T23:22:12.651Z,9.30
2018-12-19T23:24:19.057Z,184.07
2018-12-19T23:26:24.549Z,43.20
2018-12-19T23:28:31.766Z,8.20
2018-12-19T23:30:35.485Z,28.03
2018-12-19T23:32:41.614Z,6.10
2018-12-19T23:34:47.101Z,4.80
2018-12-19T23:36:53.192Z,98.77
2018-12-19T23:39:00.863Z,714.10
2018-12-19T23:41:07.363Z,193.77
2018-12-19T23:43:20.521Z,32.40
2018-12-19T23:45:26.840Z,12.63
2018-12-19T23:47:31.707Z,26.73
2018-12-19T23:51:02.344Z,261.03
2018-12-19T23:53:10.807Z,19.80
2018-12-19T23:55:18.230Z,183.97
2018-12-19T23:57:32.307Z,726.47
2018-12-19T23:59:36.835Z,301.20
